Time;durP1;ratioP1;P1;durP2;ratioP2;P2;SDS_P1;SDS_P2;PMS_P1;PMS_P2;Temp;Humidity;BMP_temperature;BMP_pressure;BME280_temperature;BME280_humidity;BME280_pressure;Samples;Min_cycle;Max_cycle;Signal;HPM_P1;HPM_P2
2021/04/28 00:01:12;;;;;;;10.33;7.90;;;8.80;79.40;;;;;;4954945;28;20529;-87
2021/04/28 00:03:40;;;;;;;14.67;8.20;;;8.90;79.30;;;;;;4963305;28;20484;-87
2021/04/28 00:06:08;;;;;;;16.43;8.30;;;8.90;79.30;;;;;;4962141;28;20579;-87
2021/04/28 00:08:35;;;;;;;8.93;8.03;;;8.90;79.40;;;;;;4949975;28;20478;-86
2021/04/28 00:11:03;;;;;;;10.40;8.60;;;8.90;79.50;;;;;;4952928;28;20502;-86
2021/04/28 00:13:30;;;;;;;10.03;7.93;;;9.00;79.00;;;;;;4952344;28;20489;-87
2021/04/28 00:15:58;;;;;;;9.87;7.90;;;9.00;79.20;;;;;;4953894;28;20553;-86
2021/04/28 00:18:25;;;;;;;8.53;7.73;;;8.90;79.20;;;;;;4955708;28;20502;-87
2021/04/28 00:20:52;;;;;;;12.40;9.40;;;8.90;79.30;;;;;;4959789;28;20482;-87
2021/04/28 00:23:20;;;;;;;11.03;9.37;;;8.80;79.20;;;;;;4944505;28;20493;-86
2021/04/28 00:25:48;;;;;;;13.73;8.90;;;8.90;79.20;;;;;;4972658;28;20480;-86
2021/04/28 00:28:15;;;;;;;9.13;7.40;;;8.90;78.80;;;;;;4962943;28;20608;-86
2021/04/28 00:30:43;;;;;;;15.43;8.63;;;8.90;79.10;;;;;;4964787;28;20481;-87
2021/04/28 00:33:10;;;;;;;10.10;8.27;;;9.00;78.70;;;;;;4963412;28;20479;-86
2021/04/28 00:35:38;;;;;;;11.83;8.40;;;9.00;78.70;;;;;;4961490;28;20574;-87
2021/04/28 00:38:05;;;;;;;13.03;8.30;;;9.00;78.70;;;;;;4967076;28;20463;-87
2021/04/28 00:40:39;;;;;;;14.33;8.17;;;8.90;78.80;;;;;;4954723;28;20482;-86
2021/04/28 00:43:06;;;;;;;11.80;8.83;;;8.90;79.00;;;;;;4969558;28;20542;-87
2021/04/28 00:45:34;;;;;;;13.37;8.20;;;8.80;79.20;;;;;;4962851;28;20493;-86
2021/04/28 00:48:03;;;;;;;10.93;7.70;;;8.70;79.50;;;;;;4968658;28;20481;-87
2021/04/28 00:50:33;;;;;;;10.67;7.67;;;8.70;79.70;;;;;;4961175;28;20594;-86
2021/04/28 00:53:01;;;;;;;10.63;8.10;;;8.60;79.90;;;;;;4958656;28;20940;-86
2021/04/28 00:55:28;;;;;;;11.40;8.67;;;8.50;80.00;;;;;;4970918;28;20479;-86
2021/04/28 00:57:56;;;;;;;12.17;8.50;;;8.50;80.20;;;;;;4959548;28;20471;-86
2021/04/28 01:00:25;;;;;;;11.50;8.33;;;8.40;80.40;;;;;;4966040;28;20465;-86
2021/04/28 01:02:53;;;;;;;11.07;8.40;;;8.40;80.70;;;;;;4970407;28;20518;-86
2021/04/28 01:05:20;;;;;;;10.47;8.30;;;8.30;80.80;;;;;;4965347;28;21142;-86
2021/04/28 01:07:49;;;;;;;13.50;8.00;;;8.30;80.90;;;;;;4963624;28;20479;-86
2021/04/28 01:10:18;;;;;;;14.03;9.30;;;8.30;80.70;;;;;;4958927;28;20475;-86
2021/04/28 01:12:46;;;;;;;11.10;8.10;;;8.30;80.80;;;;;;4959858;28;20551;-87
2021/04/28 01:15:17;;;;;;;12.03;9.47;;;8.30;80.90;;;;;;4964118;28;20475;-87
2021/04/28 01:17:44;;;;;;;9.93;8.57;;;8.30;81.10;;;;;;4965570;28;20676;-87
2021/04/28 01:20:14;;;;;;;12.97;8.67;;;8.20;81.20;;;;;;4963957;28;20481;-86
2021/04/28 01:22:43;;;;;;;8.53;7.10;;;8.20;81.20;;;;;;4959410;28;20493;-86
2021/04/28 01:25:13;;;;;;;10.43;7.30;;;8.20;81.20;;;;;;4965640;28;20501;-86
2021/04/28 01:27:43;;;;;;;10.87;8.23;;;8.20;81.20;;;;;;4953163;28;20494;-86
2021/04/28 01:30:14;;;;;;;11.33;8.30;;;8.20;81.40;;;;;;4962607;28;21022;-87
2021/04/28 01:32:46;;;;;;;12.43;8.57;;;8.10;81.50;;;;;;4955042;28;20481;-87
2021/04/28 01:35:17;;;;;;;10.17;8.30;;;8.10;81.40;;;;;;4954366;28;20529;-87
2021/04/28 01:37:45;;;;;;;10.10;8.73;;;8.10;81.50;;;;;;4955683;28;20497;-87
2021/04/28 01:40:14;;;;;;;12.57;8.80;;;8.20;81.40;;;;;;4956650;28;20487;-86
2021/04/28 01:42:42;;;;;;;10.03;8.40;;;8.10;81.40;;;;;;4956705;28;20485;-87
2021/04/28 01:45:11;;;;;;;14.70;9.27;;;8.10;81.50;;;;;;4956509;28;21013;-86
2021/04/28 01:47:40;;;;;;;17.97;10.40;;;8.10;81.50;;;;;;4967263;28;20474;-87
2021/04/28 01:50:09;;;;;;;10.73;8.43;;;8.10;81.50;;;;;;4965027;28;20590;-86
2021/04/28 01:52:37;;;;;;;10.77;8.17;;;8.10;81.40;;;;;;4962259;28;20471;-87
2021/04/28 01:55:07;;;;;;;10.33;7.10;;;8.10;81.60;;;;;;4956234;28;21254;-86
2021/04/28 01:57:35;;;;;;;12.20;8.27;;;8.10;81.60;;;;;;4955652;28;20461;-87
2021/04/28 02:00:04;;;;;;;10.03;8.50;;;8.10;81.70;;;;;;4954357;28;20470;-86
2021/04/28 02:02:31;;;;;;;9.23;7.90;;;8.10;81.80;;;;;;4974709;28;20492;-86
2021/04/28 02:05:01;;;;;;;11.23;8.20;;;8.00;81.90;;;;;;4974252;28;21245;-87
2021/04/28 02:07:28;;;;;;;9.90;8.47;;;8.00;81.90;;;;;;4964509;28;20450;-87
2021/04/28 02:09:55;;;;;;;10.10;8.10;;;8.00;81.90;;;;;;4964350;28;20899;-87
2021/04/28 02:12:23;;;;;;;10.53;8.20;;;8.00;82.00;;;;;;4970469;28;20454;-87
2021/04/28 02:14:53;;;;;;;15.00;9.03;;;8.00;82.00;;;;;;4973422;28;20462;-87
2021/04/28 02:17:21;;;;;;;11.93;8.00;;;8.00;82.00;;;;;;4942903;28;20481;-87
2021/04/28 02:19:48;;;;;;;11.43;8.03;;;7.90;82.10;;;;;;4956961;28;20538;-87
2021/04/28 02:22:16;;;;;;;15.20;8.80;;;7.90;82.20;;;;;;4954506;28;20486;-86
2021/04/28 02:24:43;;;;;;;11.30;8.47;;;7.80;82.40;;;;;;4955758;28;20475;-87
2021/04/28 02:27:10;;;;;;;15.93;9.30;;;7.90;82.70;;;;;;4958408;28;21000;-87
2021/04/28 02:29:38;;;;;;;11.63;8.73;;;7.80;82.40;;;;;;4959536;28;20491;-87
2021/04/28 02:32:06;;;;;;;12.07;8.07;;;7.80;82.50;;;;;;4959968;28;20485;-87
2021/04/28 02:34:33;;;;;;;13.80;8.53;;;7.70;82.80;;;;;;4966804;28;20477;-84
2021/04/28 02:37:01;;;;;;;15.40;8.40;;;7.60;83.00;;;;;;4955477;28;20489;-86
2021/04/28 02:39:35;;;;;;;15.93;8.13;;;7.60;83.40;;;;;;4962455;28;20502;-86
2021/04/28 02:42:03;;;;;;;14.90;8.80;;;7.50;83.60;;;;;;4966946;28;20483;-86
2021/04/28 02:44:32;;;;;;;11.93;8.50;;;7.50;83.80;;;;;;4963839;28;20467;-87
2021/04/28 02:47:02;;;;;;;11.07;8.27;;;7.50;84.00;;;;;;4963441;28;20470;-87
2021/04/28 02:49:32;;;;;;;9.57;8.10;;;7.50;84.10;;;;;;4972721;28;20487;-87
2021/04/28 02:52:00;;;;;;;12.63;8.50;;;7.40;84.20;;;;;;4969553;28;20538;-85
2021/04/28 02:54:28;;;;;;;11.57;8.23;;;7.30;84.60;;;;;;4968355;28;20477;-85
2021/04/28 02:56:55;;;;;;;12.70;9.30;;;7.30;84.90;;;;;;4967389;28;20482;-86
2021/04/28 02:59:24;;;;;;;12.77;8.60;;;7.20;85.10;;;;;;4949593;28;22162;-87
2021/04/28 03:01:52;;;;;;;12.97;9.07;;;7.10;85.60;;;;;;4981344;28;21048;-85
2021/04/28 03:04:20;;;;;;;14.27;9.37;;;7.10;86.00;;;;;;4962149;28;20565;-86
2021/04/28 03:06:47;;;;;;;12.13;9.50;;;7.10;86.20;;;;;;4952650;28;20480;-86
2021/04/28 03:09:15;;;;;;;11.80;8.90;;;7.00;86.20;;;;;;4957155;28;20484;-86
2021/04/28 03:11:43;;;;;;;17.67;9.80;;;6.90;86.70;;;;;;4964481;28;20480;-86
2021/04/28 03:14:11;;;;;;;12.00;8.50;;;6.80;86.90;;;;;;4963815;28;20491;-85
2021/04/28 03:16:38;;;;;;;9.00;8.00;;;6.80;86.70;;;;;;4975818;28;20558;-86
2021/04/28 03:19:06;;;;;;;11.10;9.03;;;6.80;86.70;;;;;;4972742;28;20473;-85
2021/04/28 03:21:37;;;;;;;12.80;8.60;;;6.80;86.50;;;;;;4968011;28;20554;-85
2021/04/28 03:24:06;;;;;;;10.30;8.80;;;6.70;86.60;;;;;;4963295;28;20480;-87
2021/04/28 03:26:33;;;;;;;13.40;9.00;;;6.70;86.80;;;;;;4964411;28;20530;-84
2021/04/28 03:29:00;;;;;;;11.00;8.20;;;6.70;86.80;;;;;;4957296;28;20562;-87
2021/04/28 03:31:27;;;;;;;12.60;8.97;;;6.70;86.80;;;;;;4972614;28;20470;-86
2021/04/28 03:33:54;;;;;;;11.13;8.13;;;6.70;86.70;;;;;;4969887;28;20557;-86
2021/04/28 03:36:21;;;;;;;12.23;8.10;;;6.60;87.10;;;;;;4958482;28;20481;-85
2021/04/28 03:38:49;;;;;;;11.70;9.17;;;6.60;87.10;;;;;;4961257;28;20570;-86
2021/04/28 03:41:16;;;;;;;14.20;9.37;;;6.50;87.10;;;;;;4962341;28;20544;-86
2021/04/28 03:43:43;;;;;;;10.17;9.07;;;6.50;87.20;;;;;;4959868;28;21278;-86
2021/04/28 03:46:10;;;;;;;15.73;9.13;;;6.40;87.40;;;;;;4961474;28;21124;-86
2021/04/28 03:48:38;;;;;;;9.10;8.03;;;6.50;87.50;;;;;;4958432;28;20571;-85
2021/04/28 03:51:06;;;;;;;20.20;8.13;;;6.40;87.40;;;;;;4953342;28;20474;-86
2021/04/28 03:53:33;;;;;;;10.73;9.60;;;6.40;87.50;;;;;;4961458;28;20496;-87
2021/04/28 03:56:00;;;;;;;9.93;8.93;;;6.40;87.80;;;;;;4959116;28;20494;-86
2021/04/28 03:58:27;;;;;;;9.47;7.70;;;6.30;87.80;;;;;;4964300;28;20469;-86
2021/04/28 04:00:54;;;;;;;11.20;8.37;;;6.20;88.20;;;;;;4975441;28;20477;-86
2021/04/28 04:03:21;;;;;;;15.50;9.50;;;6.10;88.70;;;;;;4974709;28;20484;-86
2021/04/28 04:05:50;;;;;;;12.73;8.40;;;6.10;89.10;;;;;;4974655;28;20927;-86
2021/04/28 04:08:17;;;;;;;13.20;8.50;;;6.20;88.90;;;;;;4965199;28;20928;-85
2021/04/28 04:10:44;;;;;;;11.90;9.17;;;6.10;88.80;;;;;;4963697;28;20496;-85
2021/04/28 04:13:12;;;;;;;15.90;9.10;;;6.10;88.80;;;;;;4962397;28;20483;-86
2021/04/28 04:15:39;;;;;;;11.37;9.00;;;6.10;88.80;;;;;;4968111;28;20507;-87
2021/04/28 04:18:06;;;;;;;12.77;8.03;;;6.10;88.90;;;;;;4961866;28;20475;-85
2021/04/28 04:20:33;;;;;;;10.23;8.13;;;6.10;89.00;;;;;;4964205;28;20478;-85
2021/04/28 04:23:01;;;;;;;16.53;8.10;;;6.10;88.70;;;;;;4966985;28;20506;-87
2021/04/28 04:25:28;;;;;;;13.20;8.47;;;6.10;89.00;;;;;;4958957;28;20548;-86
2021/04/28 04:27:55;;;;;;;11.07;8.90;;;6.10;88.90;;;;;;4967865;28;20489;-87
2021/04/28 04:30:23;;;;;;;13.10;8.73;;;6.10;88.80;;;;;;4967454;28;20482;-87
2021/04/28 04:32:50;;;;;;;10.40;8.50;;;6.10;89.00;;;;;;4968436;28;20479;-85
2021/04/28 04:35:17;;;;;;;10.93;8.53;;;6.20;88.60;;;;;;4973421;28;20490;-85
2021/04/28 04:37:44;;;;;;;14.00;9.10;;;6.20;88.50;;;;;;4965968;28;20479;-86
2021/04/28 04:40:15;;;;;;;11.87;8.40;;;6.20;88.40;;;;;;4961815;28;20494;-84
2021/04/28 04:42:42;;;;;;;11.60;8.23;;;6.30;88.10;;;;;;4956968;28;20583;-85
2021/04/28 04:45:11;;;;;;;12.90;8.53;;;6.20;88.40;;;;;;4957733;28;20880;-88
2021/04/28 04:47:39;;;;;;;21.30;8.50;;;6.20;88.20;;;;;;4949270;28;20572;-88
2021/04/28 04:50:08;;;;;;;15.93;8.93;;;6.30;88.10;;;;;;4954018;28;20510;-88
2021/04/28 04:52:35;;;;;;;12.03;8.00;;;6.30;88.00;;;;;;4964653;28;20480;-88
2021/04/28 04:55:02;;;;;;;10.30;9.10;;;6.30;87.70;;;;;;4964338;28;20473;-88
2021/04/28 04:57:34;;;;;;;11.60;9.20;;;6.30;87.80;;;;;;4966178;28;21181;-88
2021/04/28 05:00:02;;;;;;;14.17;9.17;;;6.30;88.10;;;;;;4970565;28;20487;-87
2021/04/28 05:02:29;;;;;;;13.73;8.60;;;6.30;87.80;;;;;;4982125;28;20497;-88
2021/04/28 05:04:58;;;;;;;9.20;7.93;;;6.30;87.90;;;;;;4974955;28;20547;-88
2021/04/28 05:07:24;;;;;;;14.73;9.27;;;6.30;87.80;;;;;;4968760;28;20468;-88
2021/04/28 05:09:52;;;;;;;13.30;8.03;;;6.40;87.70;;;;;;4963886;28;20483;-87
2021/04/28 05:12:19;;;;;;;10.13;8.40;;;6.40;87.60;;;;;;4967419;28;20576;-89
2021/04/28 05:14:46;;;;;;;20.80;8.47;;;6.40;87.40;;;;;;4963537;28;20486;-88
2021/04/28 05:17:13;;;;;;;10.00;8.00;;;6.40;87.30;;;;;;4972013;28;20542;-85
2021/04/28 05:19:40;;;;;;;11.63;8.47;;;6.50;87.60;;;;;;4968017;28;20481;-89
2021/04/28 05:22:10;;;;;;;16.00;8.30;;;6.60;87.00;;;;;;4960392;28;20485;-88
2021/04/28 05:24:39;;;;;;;11.50;9.30;;;6.60;87.10;;;;;;4967432;28;20474;-89
2021/04/28 05:27:06;;;;;;;11.57;8.57;;;6.60;87.10;;;;;;4965471;28;20488;-89
2021/04/28 05:29:33;;;;;;;12.67;8.30;;;6.50;87.40;;;;;;4969329;28;20569;-89
2021/04/28 05:32:01;;;;;;;13.00;8.50;;;6.50;87.50;;;;;;4967757;28;20470;-88
2021/04/28 05:34:29;;;;;;;11.27;8.47;;;6.60;87.40;;;;;;4965211;28;20488;-89
2021/04/28 05:36:56;;;;;;;13.93;8.50;;;6.70;87.10;;;;;;4953630;28;20466;-89
2021/04/28 05:39:25;;;;;;;12.77;9.33;;;6.70;86.80;;;;;;4960316;28;20920;-89
2021/04/28 05:41:52;;;;;;;11.17;8.13;;;6.80;86.70;;;;;;4960696;28;20504;-89
2021/04/28 05:44:19;;;;;;;22.13;8.77;;;6.80;86.80;;;;;;4955490;28;20478;-89
2021/04/28 05:46:47;;;;;;;9.43;7.80;;;6.80;86.70;;;;;;4971691;28;20489;-88
2021/04/28 05:49:15;;;;;;;11.60;8.40;;;6.90;86.80;;;;;;4971775;28;20847;-89
2021/04/28 05:51:42;;;;;;;13.13;8.73;;;6.90;86.80;;;;;;4962604;28;20558;-89
2021/04/28 05:54:10;;;;;;;12.60;7.20;;;6.90;87.00;;;;;;4963612;28;21005;-88
2021/04/28 05:56:39;;;;;;;11.63;8.90;;;6.90;87.30;;;;;;4963468;28;21048;-88
2021/04/28 05:59:07;;;;;;;10.47;8.23;;;7.00;87.30;;;;;;4957740;28;20484;-89
2021/04/28 06:01:34;;;;;;;13.20;8.83;;;7.00;87.40;;;;;;4978406;28;20485;-89
2021/04/28 06:04:02;;;;;;;12.70;8.70;;;7.10;87.50;;;;;;4967213;28;20473;-89
2021/04/28 06:06:29;;;;;;;11.20;9.13;;;7.10;87.60;;;;;;4952646;28;20568;-88
2021/04/28 06:08:56;;;;;;;14.20;9.43;;;7.10;87.50;;;;;;4968557;28;20492;-88
2021/04/28 06:11:23;;;;;;;9.67;7.57;;;7.20;87.30;;;;;;4960689;28;20561;-88
2021/04/28 06:13:51;;;;;;;15.90;8.90;;;7.30;87.60;;;;;;4955605;28;20478;-89
2021/04/28 06:16:19;;;;;;;10.60;8.30;;;7.30;87.30;;;;;;4969806;28;20479;-88
2021/04/28 06:18:46;;;;;;;12.40;8.70;;;7.40;87.20;;;;;;4968928;28;20478;-89
2021/04/28 06:21:13;;;;;;;10.13;9.10;;;7.40;87.20;;;;;;4970498;28;20879;-88
2021/04/28 06:23:40;;;;;;;10.80;8.33;;;7.50;87.20;;;;;;4963185;28;20525;-90
2021/04/28 06:26:07;;;;;;;12.93;9.20;;;7.60;87.30;;;;;;4958011;28;20508;-88
2021/04/28 06:28:35;;;;;;;13.23;9.67;;;7.60;87.70;;;;;;4958655;28;20486;-88
2021/04/28 06:31:03;;;;;;;13.60;8.17;;;7.70;88.00;;;;;;4978060;28;20481;-88
2021/04/28 06:33:30;;;;;;;17.13;10.00;;;7.70;87.80;;;;;;4964503;28;20711;-89
2021/04/28 06:35:57;;;;;;;15.77;9.63;;;7.80;88.60;;;;;;4953220;28;20857;-88
2021/04/28 06:38:25;;;;;;;15.57;9.70;;;7.90;88.90;;;;;;4961743;28;20483;-88
2021/04/28 06:40:52;;;;;;;13.23;9.40;;;8.00;87.80;;;;;;4959266;28;20474;-89
2021/04/28 06:43:19;;;;;;;17.33;10.50;;;8.00;88.30;;;;;;4952659;28;20550;-89
2021/04/28 06:46:05;;;;;;;12.80;10.00;;;8.10;88.50;;;;;;4953027;28;20462;-89
2021/04/28 06:48:32;;;;;;;12.20;8.80;;;8.30;88.90;;;;;;4962892;28;20576;-89
2021/04/28 06:50:59;;;;;;;14.10;11.50;;;8.40;88.70;;;;;;4963991;28;20998;-90
2021/04/28 06:53:26;;;;;;;13.10;10.03;;;8.50;88.30;;;;;;4970237;28;20536;-88
2021/04/28 06:55:54;;;;;;;15.10;9.60;;;8.70;88.00;;;;;;4956514;28;20486;-90
2021/04/28 06:58:21;;;;;;;12.63;9.90;;;8.80;88.30;;;;;;4953999;28;20514;-89
2021/04/28 07:00:50;;;;;;;13.27;10.27;;;8.90;88.40;;;;;;4972161;28;20466;-90
2021/04/28 07:03:18;;;;;;;20.40;10.73;;;9.00;87.60;;;;;;4962546;28;20471;-89
2021/04/28 07:05:46;;;;;;;12.00;10.03;;;9.00;88.10;;;;;;4961993;28;21506;-89
2021/04/28 07:08:13;;;;;;;13.73;9.50;;;9.10;88.80;;;;;;4954226;28;20473;-89
2021/04/28 07:10:40;;;;;;;10.53;8.57;;;9.30;88.60;;;;;;4954063;28;20483;-89
2021/04/28 07:13:08;;;;;;;14.00;9.40;;;9.50;88.80;;;;;;4966419;28;20855;-89
2021/04/28 07:15:36;;;;;;;13.73;10.13;;;9.70;87.10;;;;;;4954996;28;20471;-90
2021/04/28 07:18:03;;;;;;;16.30;9.40;;;9.80;86.70;;;;;;4968464;28;20467;-88
2021/04/28 07:20:32;;;;;;;13.60;9.67;;;10.10;87.10;;;;;;4965973;28;20554;-89
2021/04/28 07:22:59;;;;;;;13.97;9.43;;;10.20;86.20;;;;;;4965745;28;20483;-90
2021/04/28 07:25:27;;;;;;;11.87;9.20;;;10.40;85.80;;;;;;4961474;28;20514;-89
2021/04/28 07:27:54;;;;;;;11.17;8.73;;;10.60;84.60;;;;;;4958202;28;20921;-89
2021/04/28 07:30:21;;;;;;;12.97;9.47;;;10.70;85.30;;;;;;4958833;28;20611;-88
2021/04/28 07:32:48;;;;;;;11.03;8.40;;;11.00;85.20;;;;;;4965545;28;20514;-89
2021/04/28 07:35:18;;;;;;;11.70;8.63;;;11.10;84.90;;;;;;4967312;28;20464;-90
2021/04/28 07:37:46;;;;;;;14.57;9.50;;;11.30;84.90;;;;;;4947973;28;20463;-89
2021/04/28 07:40:14;;;;;;;16.87;9.40;;;11.50;83.50;;;;;;4943007;28;20547;-89
2021/04/28 07:42:41;;;;;;;11.73;9.10;;;11.60;82.80;;;;;;4946255;28;20469;-89
2021/04/28 07:45:10;;;;;;;10.77;8.10;;;11.70;82.60;;;;;;4946178;28;22743;-89
2021/04/28 07:47:37;;;;;;;12.17;9.70;;;11.80;82.20;;;;;;4961851;28;20475;-89
2021/04/28 07:50:14;;;;;;;18.80;9.13;;;11.90;81.60;;;;;;4951309;28;20487;-90
2021/04/28 07:52:42;;;;;;;14.23;8.70;;;12.00;82.20;;;;;;4953908;28;20559;-87
2021/04/28 07:55:11;;;;;;;10.23;8.40;;;12.10;82.30;;;;;;4952053;28;20465;-89
2021/04/28 07:57:38;;;;;;;9.87;8.83;;;12.30;82.60;;;;;;4953729;28;20966;-88
2021/04/28 08:00:08;;;;;;;10.77;8.37;;;12.50;82.70;;;;;;4982182;28;20479;-90
2021/04/28 08:02:35;;;;;;;17.00;8.83;;;12.60;80.90;;;;;;4961952;28;20462;-89
2021/04/28 08:05:03;;;;;;;11.63;8.63;;;12.70;80.40;;;;;;4964022;28;20488;-89
2021/04/28 08:07:30;;;;;;;13.83;8.87;;;12.90;77.80;;;;;;4961073;28;20555;-89
2021/04/28 08:09:57;;;;;;;15.47;8.30;;;13.10;79.00;;;;;;4967191;28;21002;-89
2021/04/28 08:12:25;;;;;;;9.73;8.10;;;13.10;76.80;;;;;;4949563;28;20550;-89
2021/04/28 08:14:52;;;;;;;11.13;8.30;;;13.30;76.20;;;;;;4959140;28;20927;-89
2021/04/28 08:17:21;;;;;;;16.67;7.70;;;13.30;74.30;;;;;;4974033;28;20476;-91
2021/04/28 08:19:48;;;;;;;12.07;8.50;;;13.40;74.90;;;;;;4954051;28;20581;-90
2021/04/28 08:22:15;;;;;;;12.63;8.77;;;13.50;75.60;;;;;;4960106;28;20478;-89
2021/04/28 08:24:43;;;;;;;10.90;8.30;;;13.80;76.00;;;;;;4940435;28;20473;-90
2021/04/28 08:27:10;;;;;;;9.77;8.33;;;13.90;76.00;;;;;;4955265;28;20460;-90
2021/04/28 08:29:38;;;;;;;10.50;7.80;;;14.10;76.10;;;;;;4967549;28;20595;-90
2021/04/28 08:32:05;;;;;;;9.53;8.20;;;14.20;76.00;;;;;;4978324;28;20474;-89
2021/04/28 08:34:34;;;;;;;11.30;8.63;;;14.40;75.10;;;;;;4967304;28;20506;-90
2021/04/28 08:37:01;;;;;;;13.03;9.10;;;14.50;75.70;;;;;;4965622;28;20536;-89
2021/04/28 08:39:28;;;;;;;12.97;9.50;;;14.70;73.80;;;;;;4965100;28;20500;-91
2021/04/28 08:41:55;;;;;;;10.43;8.37;;;14.80;73.70;;;;;;4956602;28;20481;-91
2021/04/28 08:44:23;;;;;;;14.10;8.10;;;14.90;72.50;;;;;;4969721;28;20486;-89
2021/04/28 08:46:51;;;;;;;10.83;9.10;;;15.00;74.40;;;;;;4975193;28;20574;-90
2021/04/28 08:49:18;;;;;;;14.00;7.80;;;15.00;71.80;;;;;;4944278;28;20539;-89
2021/04/28 08:51:46;;;;;;;8.23;7.40;;;15.10;73.50;;;;;;4951845;28;20477;-90
2021/04/28 08:54:13;;;;;;;15.03;8.43;;;15.20;74.50;;;;;;4951844;28;20553;-90
2021/04/28 08:56:48;;;;;;;11.10;8.20;;;15.40;73.90;;;;;;4942860;28;20845;-88
2021/04/28 08:59:16;;;;;;;10.17;8.10;;;15.60;73.30;;;;;;4944841;28;20569;-90
2021/04/28 09:01:45;;;;;;;11.33;8.93;;;15.70;72.40;;;;;;4977720;28;20475;-89
2021/04/28 09:04:15;;;;;;;11.80;8.20;;;15.90;71.20;;;;;;4972299;28;20810;-89
2021/04/28 09:06:43;;;;;;;14.27;8.90;;;16.00;71.70;;;;;;4970211;28;20475;-89
2021/04/28 09:09:12;;;;;;;15.80;8.83;;;16.10;69.40;;;;;;4969021;28;20819;-89
2021/04/28 09:11:45;;;;;;;12.70;7.90;;;16.30;69.00;;;;;;4954696;28;20836;-89
2021/04/28 09:14:15;;;;;;;10.07;7.97;;;16.50;70.90;;;;;;4950883;28;20502;-88
2021/04/28 09:16:45;;;;;;;15.80;10.37;;;16.70;69.80;;;;;;4968735;28;20890;-84
2021/04/28 09:19:26;;;;;;;12.90;8.77;;;16.80;68.50;;;;;;4970281;28;20490;-86
2021/04/28 09:21:59;;;;;;;17.30;8.53;;;16.80;68.70;;;;;;4962435;28;20936;-84
2021/04/28 09:24:28;;;;;;;8.97;7.93;;;16.90;69.20;;;;;;4969397;28;20486;-84
2021/04/28 09:26:57;;;;;;;18.90;9.13;;;17.10;68.50;;;;;;4955169;28;20470;-84
2021/04/28 09:29:27;;;;;;;14.80;8.60;;;17.20;66.40;;;;;;4967556;28;20513;-84
2021/04/28 09:31:59;;;;;;;15.63;9.00;;;17.20;67.00;;;;;;4964626;28;20463;-84
2021/04/28 14:54:21;;;;;;;4.10;3.70;;;29.30;31.90;;;;;;4945836;28;20519;-83
2021/04/28 14:56:48;;;;;;;6.73;3.87;;;30.10;29.90;;;;;;4932120;28;20574;-82
2021/04/28 14:59:15;;;;;;;4.07;3.77;;;30.20;31.40;;;;;;4931106;28;20495;-82
2021/04/28 15:01:42;;;;;;;4.60;4.03;;;30.60;31.60;;;;;;4939282;29;20488;-84
2021/04/28 15:04:09;;;;;;;5.37;4.10;;;30.90;31.70;;;;;;4930581;29;20487;-82
2021/04/28 15:06:36;;;;;;;5.00;4.47;;;30.90;32.50;;;;;;4925232;29;20530;-83
2021/04/28 15:09:04;;;;;;;7.10;5.40;;;30.70;32.30;;;;;;4922099;28;20480;-83
2021/04/28 15:11:32;;;;;;;7.77;4.20;;;30.80;32.20;;;;;;4904752;28;20471;-82
2021/04/28 15:13:59;;;;;;;6.83;4.83;;;30.80;33.80;;;;;;4908841;28;20584;-82
2021/04/28 15:16:26;;;;;;;5.40;4.90;;;30.80;32.80;;;;;;4924571;28;20564;-82
2021/04/28 15:18:55;;;;;;;5.23;4.23;;;29.40;34.40;;;;;;4920683;28;20477;-89
2021/04/28 15:21:23;;;;;;;12.33;4.50;;;28.20;36.50;;;;;;4940780;28;20507;-90
2021/04/28 15:23:51;;;;;;;5.70;5.10;;;27.30;37.30;;;;;;4927432;29;21043;-88
2021/04/28 15:26:18;;;;;;;7.40;5.37;;;26.70;37.60;;;;;;4920547;29;20472;-89
2021/04/28 15:28:46;;;;;;;6.23;5.37;;;26.20;38.80;;;;;;4913560;29;20902;-90
2021/04/28 15:31:13;;;;;;;5.43;4.93;;;25.90;39.10;;;;;;4935847;29;21047;-89
2021/04/28 15:33:41;;;;;;;6.90;5.00;;;25.50;40.00;;;;;;4930303;29;20487;-89
2021/04/28 15:36:08;;;;;;;6.07;5.40;;;25.30;40.40;;;;;;4930207;29;20520;-89
2021/04/28 15:38:35;;;;;;;6.17;5.33;;;25.00;41.00;;;;;;4913808;29;20472;-89
2021/04/28 15:41:02;;;;;;;12.40;5.67;;;24.50;42.00;;;;;;4925818;29;20472;-89
2021/04/28 15:43:29;;;;;;;9.27;5.93;;;24.00;44.00;;;;;;4925516;29;20568;-89
2021/04/28 15:46:00;;;;;;;6.63;5.40;;;23.70;43.90;;;;;;4920610;28;20473;-88
2021/04/28 15:48:27;;;;;;;10.40;5.37;;;23.50;43.50;;;;;;4920856;29;20576;-89
2021/04/28 15:50:55;;;;;;;7.60;4.93;;;23.10;44.80;;;;;;4922173;29;21008;-89
2021/04/28 15:53:22;;;;;;;5.80;4.93;;;23.00;45.70;;;;;;4916772;29;20480;-88
2021/04/28 15:55:49;;;;;;;7.57;5.33;;;23.00;46.10;;;;;;4923588;29;20477;-88
2021/04/28 15:58:16;;;;;;;6.50;5.43;;;22.90;46.10;;;;;;4944357;28;20479;-89
2021/04/28 16:00:44;;;;;;;8.20;5.30;;;22.70;46.80;;;;;;4938405;28;20471;-88
2021/04/28 16:03:12;;;;;;;8.47;5.93;;;22.50;47.00;;;;;;4947153;28;20472;-89
2021/04/28 16:05:38;;;;;;;8.73;6.00;;;22.20;46.60;;;;;;4947552;28;20471;-89
2021/04/28 16:08:06;;;;;;;6.67;5.80;;;22.00;47.50;;;;;;4928793;28;20553;-89
2021/04/28 16:10:33;;;;;;;10.17;5.80;;;21.80;48.00;;;;;;4921103;29;21073;-89
2021/04/28 16:13:00;;;;;;;8.67;6.20;;;21.70;48.30;;;;;;4934631;28;20464;-89
2021/04/28 16:15:29;;;;;;;6.70;5.53;;;21.50;48.60;;;;;;4923357;28;20508;-89
2021/04/28 16:17:56;;;;;;;7.00;5.23;;;21.30;49.10;;;;;;4928369;28;20501;-89
2021/04/28 16:20:24;;;;;;;7.50;5.17;;;21.20;49.00;;;;;;4931870;28;20480;-89
2021/04/28 16:22:54;;;;;;;9.83;6.37;;;21.10;48.90;;;;;;4914988;28;20480;-89
2021/04/28 16:25:21;;;;;;;7.60;6.10;;;20.90;49.40;;;;;;4920729;29;20994;-89
2021/04/28 16:27:49;;;;;;;8.13;6.00;;;20.80;49.90;;;;;;4923159;29;20472;-89
2021/04/28 16:30:18;;;;;;;8.93;6.10;;;20.70;50.20;;;;;;4923780;29;20492;-89
2021/04/28 16:32:45;;;;;;;10.67;6.53;;;20.60;50.50;;;;;;4929238;29;20575;-89
2021/04/28 16:35:12;;;;;;;12.10;6.60;;;20.50;51.10;;;;;;4939361;28;20843;-88
2021/04/28 16:37:40;;;;;;;8.17;5.73;;;20.50;51.40;;;;;;4948132;28;20489;-89
2021/04/28 16:40:09;;;;;;;7.63;5.80;;;20.40;51.60;;;;;;4939188;28;20523;-89
2021/04/28 16:42:36;;;;;;;15.27;4.93;;;20.30;52.70;;;;;;4923485;29;20559;-89
2021/04/28 16:45:05;;;;;;;3.33;2.17;;;20.20;54.00;;;;;;4926528;29;20481;-84
2021/04/28 16:47:32;;;;;;;4.00;3.00;;;20.10;52.30;;;;;;4931543;29;20568;-83
2021/04/28 16:49:59;;;;;;;5.53;4.23;;;19.90;51.40;;;;;;4924839;29;20572;-83
2021/04/28 16:52:26;;;;;;;5.00;3.70;;;19.70;54.20;;;;;;4926446;29;20486;-84
2021/04/28 16:54:54;;;;;;;4.20;3.80;;;19.50;55.80;;;;;;4926436;29;20496;-84
2021/04/28 16:57:21;;;;;;;3.83;3.33;;;19.30;55.30;;;;;;4921850;29;20551;-83
2021/04/28 16:59:49;;;;;;;4.53;2.57;;;19.20;58.10;;;;;;4927018;28;20848;-84
2021/04/28 17:02:17;;;;;;;2.40;2.17;;;19.10;59.50;;;;;;4930435;28;21045;-84
2021/04/28 17:04:44;;;;;;;2.73;2.43;;;19.10;60.50;;;;;;4920809;28;20528;-84
2021/04/28 17:07:12;;;;;;;3.47;2.90;;;19.10;61.70;;;;;;4925217;29;21098;-84
2021/04/28 17:09:39;;;;;;;3.00;2.80;;;19.00;60.50;;;;;;4926870;29;20479;-84
2021/04/28 17:12:07;;;;;;;5.67;3.73;;;19.00;57.40;;;;;;4923857;29;20469;-84
2021/04/28 17:14:35;;;;;;;6.27;3.80;;;19.10;54.40;;;;;;4935648;28;20476;-84
2021/04/28 17:17:02;;;;;;;5.67;3.90;;;19.20;54.70;;;;;;4939723;28;20476;-84
2021/04/28 17:19:38;;;;;;;6.67;4.30;;;19.20;53.90;;;;;;4931862;29;20508;-84
2021/04/28 17:22:05;;;;;;;5.40;3.77;;;19.20;56.30;;;;;;4929830;29;20508;-84
2021/04/28 17:24:33;;;;;;;6.77;4.17;;;19.20;56.00;;;;;;4931585;29;20464;-84
2021/04/28 17:27:01;;;;;;;4.47;4.07;;;19.20;56.10;;;;;;4917016;29;21019;-83
2021/04/28 17:29:48;;;;;;;9.13;6.70;;;19.10;56.90;;;;;;4932281;28;21088;-84
2021/04/28 17:32:16;;;;;;;9.90;6.50;;;19.20;54.60;;;;;;4915146;29;21476;-84
2021/04/28 17:34:43;;;;;;;8.30;5.53;;;19.10;54.80;;;;;;4918036;28;20481;-84
2021/04/28 17:37:10;;;;;;;5.80;4.60;;;19.10;58.40;;;;;;4940237;28;20473;-83
2021/04/28 17:39:37;;;;;;;5.00;4.30;;;19.00;59.20;;;;;;4917777;28;21040;-83
2021/04/28 17:42:05;;;;;;;7.57;5.27;;;18.90;59.30;;;;;;4938842;28;20579;-83
2021/04/28 17:44:33;;;;;;;8.77;4.97;;;18.70;58.70;;;;;;4929410;29;20468;-88
2021/04/28 17:47:04;;;;;;;17.53;8.17;;;18.70;59.70;;;;;;4932436;29;20552;-88
2021/04/28 17:49:33;;;;;;;11.77;7.40;;;18.60;58.70;;;;;;4931675;28;20495;-82
2021/04/28 17:52:00;;;;;;;11.30;8.43;;;18.50;59.40;;;;;;4932127;28;20556;-89
2021/04/28 17:54:29;;;;;;;12.70;9.00;;;18.50;62.40;;;;;;4919717;29;20480;-89
2021/04/28 17:56:56;;;;;;;13.67;8.63;;;18.40;66.10;;;;;;4924309;28;20567;-89
2021/04/28 17:59:24;;;;;;;13.77;8.20;;;18.20;69.90;;;;;;4913952;28;20487;-89
2021/04/28 18:01:52;;;;;;;9.10;6.97;;;18.10;72.50;;;;;;4956046;28;20548;-89
2021/04/28 18:04:20;;;;;;;6.70;6.10;;;18.00;66.80;;;;;;4929754;29;20465;-88
2021/04/28 18:06:49;;;;;;;9.47;6.70;;;17.90;67.70;;;;;;4921028;29;20483;-88
2021/04/28 18:09:17;;;;;;;9.23;6.60;;;17.80;68.30;;;;;;4923414;29;20544;-88